Time;durP1;ratioP1;P1;durP2;ratioP2;P2;SDS_P1;SDS_P2;PMS_P1;PMS_P2;Temp;Humidity;BMP_temperature;BMP_pressure;BME280_temperature;BME280_humidity;BME280_pressure;Samples;Min_cycle;Max_cycle;Signal;HPM_P1;HPM_P2
2023/09/19 00:01:48;;;;;;;4.82;1.35;;;;;;;;;;5065641;28;42620;-75
2023/09/19 00:04:23;;;;;;;6.10;1.45;;;;;;;;;;5065625;28;40300;-72
2023/09/19 00:06:51;;;;;;;3.47;1.63;;;;;;;;;;5057914;28;42377;-71
2023/09/19 00:09:18;;;;;;;4.47;1.80;;;;;;;;;;5068063;28;41168;-77
2023/09/19 00:11:47;;;;;;;4.43;1.30;;;;;;;;;;5071396;28;41418;-77
2023/09/19 00:14:15;;;;;;;12.50;1.90;;;;;;;;;;5071168;28;42631;-76
2023/09/19 00:16:43;;;;;;;28.42;2.70;;;;;;;;;;5071486;28;40068;-77
2023/09/19 00:19:11;;;;;;;29.80;2.95;;;;;;;;;;5061656;28;41599;-78
2023/09/19 00:21:41;;;;;;;24.60;2.50;;;;;;;;;;5067647;28;43106;-78
2023/09/19 00:24:09;;;;;;;16.92;1.98;;;;;;;;;;5069678;28;40966;-78
2023/09/19 00:26:38;;;;;;;18.67;2.17;;;;;;;;;;5068700;28;42119;-78
2023/09/19 00:29:08;;;;;;;15.02;1.90;;;;;;;;;;5069809;28;42696;-78
2023/09/19 00:31:37;;;;;;;18.40;2.88;;;;;;;;;;5065543;28;41691;-78
2023/09/19 00:34:10;;;;;;;7.32;1.75;;;;;;;;;;5070052;28;42543;-78
2023/09/19 00:36:39;;;;;;;10.45;1.58;;;;;;;;;;5068892;28;40923;-78
2023/09/19 00:39:09;;;;;;;7.13;1.90;;;;;;;;;;5070577;28;41706;-78
2023/09/19 00:41:40;;;;;;;9.68;1.38;;;;;;;;;;5068138;28;40596;-78
2023/09/19 00:44:09;;;;;;;8.73;1.40;;;;;;;;;;5069661;28;40209;-78
2023/09/19 00:46:37;;;;;;;4.45;1.80;;;;;;;;;;5068803;28;41497;-78
2023/09/19 00:49:06;;;;;;;12.25;1.38;;;;;;;;;;5069104;28;42582;-78
2023/09/19 00:51:35;;;;;;;10.20;1.58;;;;;;;;;;5069456;28;38898;-78
2023/09/19 00:54:04;;;;;;;10.57;1.20;;;;;;;;;;5070299;28;41674;-77
2023/09/19 00:56:33;;;;;;;6.72;1.70;;;;;;;;;;5069196;28;41336;-77
2023/09/19 00:59:01;;;;;;;6.70;1.65;;;;;;;;;;5064734;28;40826;-78
2023/09/19 01:01:29;;;;;;;5.00;1.05;;;;;;;;;;5069798;28;42900;-77
2023/09/19 01:03:57;;;;;;;5.85;1.45;;;;;;;;;;5069753;28;39458;-77
2023/09/19 01:06:26;;;;;;;5.00;1.45;;;;;;;;;;5069996;28;41452;-78
2023/09/19 01:08:54;;;;;;;7.90;1.63;;;;;;;;;;5068898;28;40429;-78
2023/09/19 01:11:24;;;;;;;7.03;1.83;;;;;;;;;;5069668;28;41287;-77
2023/09/19 01:13:58;;;;;;;4.95;1.50;;;;;;;;;;5070759;28;42385;-78
2023/09/19 01:16:39;;;;;;;6.53;1.50;;;;;;;;;;5066245;28;40027;-78
2023/09/19 01:19:11;;;;;;;6.25;1.40;;;;;;;;;;5054365;28;40207;-78
2023/09/19 01:21:42;;;;;;;8.35;1.33;;;;;;;;;;5065646;28;42264;-78
2023/09/19 01:24:24;;;;;;;4.43;1.30;;;;;;;;;;5065889;28;37686;-78
2023/09/19 01:26:57;;;;;;;6.90;1.60;;;;;;;;;;5067731;28;42044;-78
2023/09/19 01:29:34;;;;;;;8.57;1.48;;;;;;;;;;5066093;28;43270;-78
2023/09/19 01:32:05;;;;;;;6.35;1.38;;;;;;;;;;5065506;28;20271;-78
2023/09/19 01:34:47;;;;;;;6.80;1.20;;;;;;;;;;5066375;28;41061;-78
2023/09/19 01:37:19;;;;;;;3.08;1.08;;;;;;;;;;5067277;28;31601;-78
2023/09/19 01:39:49;;;;;;;5.45;1.50;;;;;;;;;;5066656;28;42602;-77
2023/09/19 01:42:22;;;;;;;4.18;1.45;;;;;;;;;;5067615;28;41917;-78
2023/09/19 01:44:52;;;;;;;3.60;1.10;;;;;;;;;;5064788;28;40307;-78
2023/09/19 01:47:24;;;;;;;4.03;1.45;;;;;;;;;;5066863;28;42235;-78
2023/09/19 01:49:57;;;;;;;4.10;1.27;;;;;;;;;;5066315;28;42725;-77
2023/09/19 01:52:26;;;;;;;5.55;1.45;;;;;;;;;;5067127;28;40845;-78
2023/09/19 01:54:56;;;;;;;5.80;1.23;;;;;;;;;;5069644;28;42612;-78
2023/09/19 01:57:28;;;;;;;4.45;1.50;;;;;;;;;;5068388;28;40478;-78
2023/09/19 01:59:58;;;;;;;4.22;1.33;;;;;;;;;;5067767;28;40348;-78
2023/09/19 02:02:29;;;;;;;3.90;1.60;;;;;;;;;;5067752;28;41803;-78
2023/09/19 02:04:57;;;;;;;7.97;1.92;;;;;;;;;;5068077;28;38936;-78
2023/09/19 02:07:28;;;;;;;3.05;1.40;;;;;;;;;;5066924;28;42114;-78
2023/09/19 02:09:56;;;;;;;4.78;1.40;;;;;;;;;;5057130;28;42655;-77
2023/09/19 02:12:24;;;;;;;5.25;1.67;;;;;;;;;;5068377;28;41392;-77
2023/09/19 02:14:52;;;;;;;4.72;1.33;;;;;;;;;;5067960;28;40207;-78
2023/09/19 02:17:20;;;;;;;3.58;1.23;;;;;;;;;;5062705;28;41847;-77
2023/09/19 02:19:49;;;;;;;5.53;1.77;;;;;;;;;;5058976;28;40204;-77
2023/09/19 02:22:17;;;;;;;4.18;1.25;;;;;;;;;;5058099;28;42782;-78
2023/09/19 02:24:47;;;;;;;4.45;1.67;;;;;;;;;;5066668;28;40642;-77
2023/09/19 02:27:16;;;;;;;3.67;1.67;;;;;;;;;;5065397;28;40431;-78
2023/09/19 02:29:44;;;;;;;5.20;1.55;;;;;;;;;;5067202;28;40730;-77
2023/09/19 02:32:12;;;;;;;4.55;1.55;;;;;;;;;;5066537;28;39995;-78
2023/09/19 02:34:41;;;;;;;5.15;2.13;;;;;;;;;;5082389;28;40212;-78
2023/09/19 02:37:13;;;;;;;4.63;1.42;;;;;;;;;;5067005;28;42893;-78
2023/09/19 02:39:41;;;;;;;3.88;1.70;;;;;;;;;;5065374;28;40874;-78
2023/09/19 02:42:09;;;;;;;3.85;1.30;;;;;;;;;;5064550;28;41581;-77
2023/09/19 02:44:38;;;;;;;5.93;1.77;;;;;;;;;;5067628;28;40164;-77
2023/09/19 02:47:06;;;;;;;2.25;1.10;;;;;;;;;;5067459;28;40775;-78
2023/09/19 02:49:34;;;;;;;7.07;1.80;;;;;;;;;;5066917;28;42167;-78
2023/09/19 02:52:03;;;;;;;5.43;1.98;;;;;;;;;;5068569;28;41315;-78
2023/09/19 02:54:33;;;;;;;5.57;1.73;;;;;;;;;;5066150;28;42233;-78
2023/09/19 02:57:01;;;;;;;2.92;1.25;;;;;;;;;;5068908;28;43187;-78
2023/09/19 02:59:30;;;;;;;4.47;1.52;;;;;;;;;;5067389;28;40571;-78
2023/09/19 03:02:00;;;;;;;4.10;1.40;;;;;;;;;;5066715;28;41206;-78
2023/09/19 03:04:28;;;;;;;2.50;1.00;;;;;;;;;;5066936;28;40114;-77
2023/09/19 03:07:00;;;;;;;6.63;1.67;;;;;;;;;;5068864;28;41155;-77
2023/09/19 03:09:28;;;;;;;4.93;1.55;;;;;;;;;;5066036;28;41063;-78
2023/09/19 03:11:59;;;;;;;5.10;1.55;;;;;;;;;;5064523;28;39026;-77
2023/09/19 03:14:30;;;;;;;3.25;1.30;;;;;;;;;;5065660;28;40222;-78
2023/09/19 03:16:59;;;;;;;9.73;2.42;;;;;;;;;;5065831;28;42144;-78
2023/09/19 03:19:28;;;;;;;5.13;1.45;;;;;;;;;;5065721;28;40292;-78
2023/09/19 03:21:58;;;;;;;4.28;1.60;;;;;;;;;;5065504;28;41401;-77
2023/09/19 03:24:26;;;;;;;4.32;1.70;;;;;;;;;;5064051;28;41967;-78
2023/09/19 03:26:55;;;;;;;4.00;1.60;;;;;;;;;;5065898;28;41103;-78
2023/09/19 03:29:25;;;;;;;3.10;1.73;;;;;;;;;;5099557;28;41518;-78
2023/09/19 03:31:54;;;;;;;4.72;1.67;;;;;;;;;;5065549;28;38628;-78
2023/09/19 03:34:22;;;;;;;4.13;1.70;;;;;;;;;;5066273;28;40262;-78
2023/09/19 03:36:50;;;;;;;3.78;1.27;;;;;;;;;;5065822;28;41079;-78
2023/09/19 03:39:19;;;;;;;4.93;1.63;;;;;;;;;;5065821;28;38939;-78
2023/09/19 03:41:47;;;;;;;4.65;1.40;;;;;;;;;;5065836;28;41359;-78
2023/09/19 03:44:15;;;;;;;4.20;1.80;;;;;;;;;;5063690;28;40829;-78
2023/09/19 03:46:45;;;;;;;4.68;1.30;;;;;;;;;;5067624;28;41087;-78
2023/09/19 03:49:13;;;;;;;7.32;1.85;;;;;;;;;;5065441;28;41610;-78
2023/09/19 03:51:41;;;;;;;3.92;1.15;;;;;;;;;;5059510;28;41321;-78
2023/09/19 03:54:09;;;;;;;3.75;1.08;;;;;;;;;;5064737;28;40654;-78
2023/09/19 03:56:37;;;;;;;2.83;1.02;;;;;;;;;;5064940;28;40664;-78
2023/09/19 03:59:06;;;;;;;3.40;1.30;;;;;;;;;;5065847;28;39265;-78
2023/09/19 04:01:34;;;;;;;3.65;1.00;;;;;;;;;;5065754;28;40947;-78
2023/09/19 04:04:08;;;;;;;3.22;1.35;;;;;;;;;;5067552;28;42319;-78
2023/09/19 04:06:37;;;;;;;2.38;1.20;;;;;;;;;;5059212;28;38781;-78
2023/09/19 04:09:06;;;;;;;3.80;1.13;;;;;;;;;;5059346;28;41503;-77
2023/09/19 04:11:34;;;;;;;2.53;1.08;;;;;;;;;;5065155;28;38930;-77
2023/09/19 04:14:04;;;;;;;2.47;1.05;;;;;;;;;;5065137;28;40144;-78
2023/09/19 04:16:32;;;;;;;2.95;1.05;;;;;;;;;;5065150;28;41631;-77
2023/09/19 04:19:00;;;;;;;2.60;1.25;;;;;;;;;;5065531;28;38530;-78
2023/09/19 04:21:30;;;;;;;3.25;1.05;;;;;;;;;;5065452;28;40285;-78
2023/09/19 04:23:58;;;;;;;2.60;1.13;;;;;;;;;;5064715;28;40522;-78
2023/09/19 04:26:26;;;;;;;4.25;1.48;;;;;;;;;;5064339;28;38727;-77
2023/09/19 04:28:56;;;;;;;3.58;1.20;;;;;;;;;;5066746;28;41703;-78
2023/09/19 04:31:24;;;;;;;5.85;1.60;;;;;;;;;;5066953;28;42745;-78
2023/09/19 04:33:52;;;;;;;4.00;1.40;;;;;;;;;;5052514;28;41884;-78
2023/09/19 04:36:20;;;;;;;5.18;1.55;;;;;;;;;;5066084;28;43723;-78
2023/09/19 04:39:07;;;;;;;2.60;1.20;;;;;;;;;;5050049;28;40288;-77
2023/09/19 04:41:36;;;;;;;4.78;1.58;;;;;;;;;;5064503;28;39982;-78
2023/09/19 04:44:05;;;;;;;4.20;1.75;;;;;;;;;;5066320;28;41963;-77
2023/09/19 04:46:32;;;;;;;4.78;1.95;;;;;;;;;;5058953;28;40071;-77
2023/09/19 04:49:01;;;;;;;2.58;1.15;;;;;;;;;;5061141;28;41449;-77
2023/09/19 04:51:34;;;;;;;4.05;1.63;;;;;;;;;;5065888;28;43263;-77
2023/09/19 04:54:02;;;;;;;3.20;1.20;;;;;;;;;;5064840;28;40262;-77
2023/09/19 04:56:32;;;;;;;3.55;1.10;;;;;;;;;;5069050;28;42716;-77
2023/09/19 04:59:00;;;;;;;2.78;1.27;;;;;;;;;;5069848;28;39274;-77
2023/09/19 05:01:28;;;;;;;4.82;1.52;;;;;;;;;;5069265;28;42298;-77
2023/09/19 05:03:56;;;;;;;2.83;1.05;;;;;;;;;;5062612;28;42241;-78
2023/09/19 05:06:26;;;;;;;3.40;1.33;;;;;;;;;;5068134;28;40864;-77
2023/09/19 05:08:54;;;;;;;5.75;1.50;;;;;;;;;;5069098;28;42025;-77
2023/09/19 05:11:22;;;;;;;4.03;1.00;;;;;;;;;;5067675;28;40669;-77
2023/09/19 05:13:52;;;;;;;3.28;1.40;;;;;;;;;;5069383;28;40534;-77
2023/09/19 05:16:20;;;;;;;2.78;1.20;;;;;;;;;;5066503;28;41601;-77
2023/09/19 05:18:49;;;;;;;5.90;1.55;;;;;;;;;;5066575;28;41336;-77
2023/09/19 05:21:18;;;;;;;3.60;1.63;;;;;;;;;;5062044;28;42588;-77
2023/09/19 05:23:47;;;;;;;3.28;0.95;;;;;;;;;;5067677;28;41931;-77
2023/09/19 05:26:16;;;;;;;2.42;1.02;;;;;;;;;;5066430;28;40953;-78
2023/09/19 05:28:44;;;;;;;11.63;2.55;;;;;;;;;;5069283;28;40312;-77
2023/09/19 05:31:14;;;;;;;4.65;1.50;;;;;;;;;;5066926;28;42236;-77
2023/09/19 05:33:42;;;;;;;4.72;1.58;;;;;;;;;;5067933;28;40258;-77
2023/09/19 05:36:11;;;;;;;4.25;1.40;;;;;;;;;;5060785;28;42574;-78
2023/09/19 05:38:40;;;;;;;5.07;1.80;;;;;;;;;;5067304;28;41954;-78
2023/09/19 05:41:09;;;;;;;7.60;1.50;;;;;;;;;;5069452;28;42720;-77
2023/09/19 05:43:37;;;;;;;6.32;1.60;;;;;;;;;;5058596;28;41775;-77
2023/09/19 05:46:06;;;;;;;4.57;1.08;;;;;;;;;;5068533;28;40075;-77
2023/09/19 05:48:35;;;;;;;7.95;1.40;;;;;;;;;;5067035;28;41632;-72
2023/09/19 05:51:03;;;;;;;9.52;1.52;;;;;;;;;;5062026;28;42541;-72
2023/09/19 05:53:31;;;;;;;5.47;1.63;;;;;;;;;;5068245;28;40114;-72
2023/09/19 05:56:00;;;;;;;8.07;1.85;;;;;;;;;;5068947;28;41821;-72
2023/09/19 05:58:28;;;;;;;9.18;1.60;;;;;;;;;;5067550;28;41821;-73
2023/09/19 06:00:57;;;;;;;12.43;1.98;;;;;;;;;;5068222;28;42126;-73
2023/09/19 06:03:26;;;;;;;15.85;1.52;;;;;;;;;;5062990;28;40637;-72
2023/09/19 06:05:57;;;;;;;13.25;1.45;;;;;;;;;;5055391;28;39714;-73
2023/09/19 06:08:25;;;;;;;7.65;1.42;;;;;;;;;;5063598;28;41702;-72
2023/09/19 06:10:54;;;;;;;14.77;1.95;;;;;;;;;;5068888;28;43220;-72
2023/09/19 06:13:22;;;;;;;12.10;2.20;;;;;;;;;;5067749;28;40534;-73
2023/09/19 06:15:50;;;;;;;19.77;2.40;;;;;;;;;;5068622;28;41963;-73
2023/09/19 06:18:19;;;;;;;17.27;2.28;;;;;;;;;;5068276;28;42114;-73
2023/09/19 06:20:48;;;;;;;73.68;5.82;;;;;;;;;;5066569;28;41405;-74
2023/09/19 06:23:19;;;;;;;15.88;2.15;;;;;;;;;;5064495;28;41760;-73
2023/09/19 06:25:48;;;;;;;8.68;2.33;;;;;;;;;;5067433;28;40430;-72
2023/09/19 06:28:20;;;;;;;15.68;1.77;;;;;;;;;;5067858;28;41766;-72
2023/09/19 06:30:48;;;;;;;8.75;1.83;;;;;;;;;;5067465;28;42324;-72
2023/09/19 06:33:17;;;;;;;15.25;2.75;;;;;;;;;;5067461;28;40390;-72
2023/09/19 06:35:46;;;;;;;13.43;2.75;;;;;;;;;;5061589;28;42316;-72
2023/09/19 06:38:15;;;;;;;8.88;2.00;;;;;;;;;;5065510;28;42356;-72
2023/09/19 06:40:44;;;;;;;8.27;1.52;;;;;;;;;;5064933;28;40622;-73
2023/09/19 06:43:12;;;;;;;13.25;2.42;;;;;;;;;;5067674;28;41051;-73
2023/09/19 06:45:42;;;;;;;24.50;2.97;;;;;;;;;;5066334;28;41314;-73
2023/09/19 06:48:12;;;;;;;19.88;2.17;;;;;;;;;;5067329;28;42647;-74
2023/09/19 06:50:41;;;;;;;13.10;2.15;;;;;;;;;;5067607;28;41773;-73
2023/09/19 06:53:09;;;;;;;11.55;2.05;;;;;;;;;;5068464;28;40452;-73
2023/09/19 06:55:37;;;;;;;17.70;3.00;;;;;;;;;;5067017;28;41855;-73
2023/09/19 06:58:07;;;;;;;15.93;2.55;;;;;;;;;;5068188;28;42388;-73
2023/09/19 07:00:36;;;;;;;13.90;2.63;;;;;;;;;;5067623;28;40430;-73
2023/09/19 07:03:08;;;;;;;13.55;2.30;;;;;;;;;;5065631;28;41262;-73
2023/09/19 07:05:37;;;;;;;14.35;2.42;;;;;;;;;;5062991;28;42057;-73
2023/09/19 07:08:07;;;;;;;11.30;2.25;;;;;;;;;;5066613;28;42587;-73
2023/09/19 07:10:35;;;;;;;12.75;2.28;;;;;;;;;;5058152;28;41793;-74
2023/09/19 07:13:04;;;;;;;10.05;2.20;;;;;;;;;;5067074;28;40072;-71
2023/09/19 07:15:35;;;;;;;7.88;2.25;;;;;;;;;;5066970;28;41682;-71
2023/09/19 07:18:03;;;;;;;8.95;2.28;;;;;;;;;;5067478;28;42653;-71
2023/09/19 07:20:32;;;;;;;11.50;2.42;;;;;;;;;;5066516;28;40228;-72
2023/09/19 07:23:00;;;;;;;9.68;2.13;;;;;;;;;;5066309;28;41553;-74
2023/09/19 07:25:29;;;;;;;9.23;2.75;;;;;;;;;;5062466;28;42279;-71
2023/09/19 07:27:59;;;;;;;12.65;3.22;;;;;;;;;;5068169;28;40382;-71
2023/09/19 07:30:28;;;;;;;8.18;2.22;;;;;;;;;;5065846;28;41696;-71
2023/09/19 07:32:58;;;;;;;12.02;2.58;;;;;;;;;;5060579;28;40938;-71
2023/09/19 07:35:27;;;;;;;8.07;2.90;;;;;;;;;;5066447;28;41539;-71
2023/09/19 07:37:56;;;;;;;12.60;3.10;;;;;;;;;;5065257;28;40777;-71
2023/09/19 07:40:26;;;;;;;10.13;2.40;;;;;;;;;;5067174;28;41053;-72
2023/09/19 07:42:55;;;;;;;10.07;2.78;;;;;;;;;;5067416;28;42371;-71
2023/09/19 07:45:25;;;;;;;10.48;2.72;;;;;;;;;;5067107;28;42547;-71
2023/09/19 07:47:53;;;;;;;10.38;2.60;;;;;;;;;;5062553;28;40289;-71
2023/09/19 07:50:23;;;;;;;10.95;2.40;;;;;;;;;;5059447;28;42098;-71
2023/09/19 07:52:52;;;;;;;11.23;3.15;;;;;;;;;;5066880;28;40136;-72
2023/09/19 07:55:23;;;;;;;10.32;2.50;;;;;;;;;;5067117;28;41892;-71
2023/09/19 07:57:51;;;;;;;8.20;2.67;;;;;;;;;;5062422;28;41646;-71
2023/09/19 08:00:19;;;;;;;9.35;2.75;;;;;;;;;;5066007;28;39568;-71
2023/09/19 08:02:48;;;;;;;9.32;2.22;;;;;;;;;;5063495;28;41120;-72
2023/09/19 08:05:26;;;;;;;20.67;3.45;;;;;;;;;;5059049;28;41694;-71
2023/09/19 08:07:56;;;;;;;11.00;2.30;;;;;;;;;;5066868;28;40404;-71
2023/09/19 08:10:27;;;;;;;12.80;2.65;;;;;;;;;;5066346;28;41592;-71
2023/09/19 08:12:58;;;;;;;9.45;2.00;;;;;;;;;;5064884;28;38805;-71
2023/09/19 08:15:26;;;;;;;11.15;2.60;;;;;;;;;;5066257;28;40680;-71
2023/09/19 08:17:54;;;;;;;10.18;2.08;;;;;;;;;;5066677;28;41734;-72
2023/09/19 08:20:22;;;;;;;8.73;2.33;;;;;;;;;;5066543;28;40270;-71
2023/09/19 08:22:52;;;;;;;14.32;2.50;;;;;;;;;;5066020;28;43219;-71
2023/09/19 08:25:21;;;;;;;11.85;2.67;;;;;;;;;;5051472;28;42049;-71
2023/09/19 08:27:49;;;;;;;8.15;2.63;;;;;;;;;;5066620;28;41009;-70
2023/09/19 08:30:20;;;;;;;12.88;2.20;;;;;;;;;;5067872;28;43122;-71
2023/09/19 08:32:48;;;;;;;10.25;2.85;;;;;;;;;;5064943;28;43124;-68
2023/09/19 08:35:16;;;;;;;11.52;2.80;;;;;;;;;;5062575;28;42695;-68
2023/09/19 08:37:45;;;;;;;9.70;2.17;;;;;;;;;;5061979;28;42652;-68
2023/09/19 08:40:14;;;;;;;13.85;2.40;;;;;;;;;;5069690;28;41591;-68
2023/09/19 08:42:49;;;;;;;10.68;2.28;;;;;;;;;;5069363;28;41336;-68
2023/09/19 08:45:18;;;;;;;9.85;2.55;;;;;;;;;;5069454;28;42006;-67
2023/09/19 08:47:46;;;;;;;11.35;3.13;;;;;;;;;;5068632;28;39943;-68
2023/09/19 08:50:17;;;;;;;9.50;2.42;;;;;;;;;;5070232;28;41828;-68
2023/09/19 08:52:45;;;;;;;8.98;2.53;;;;;;;;;;5064389;28;42394;-68
2023/09/19 08:55:20;;;;;;;9.68;2.67;;;;;;;;;;5065324;28;40341;-67
2023/09/19 08:57:49;;;;;;;7.28;2.35;;;;;;;;;;5066301;28;42210;-67
2023/09/19 09:00:20;;;;;;;10.68;2.80;;;;;;;;;;5069161;28;41444;-67
2023/09/19 09:02:49;;;;;;;8.52;2.53;;;;;;;;;;5062587;28;41796;-67
2023/09/19 09:05:22;;;;;;;10.90;2.58;;;;;;;;;;5069404;28;41822;-66
2023/09/19 09:07:51;;;;;;;9.18;2.30;;;;;;;;;;5066781;28;40895;-67
2023/09/19 09:10:22;;;;;;;9.50;2.25;;;;;;;;;;5068509;28;42346;-67
2023/09/19 09:12:51;;;;;;;11.80;2.88;;;;;;;;;;5066266;28;41456;-67
2023/09/19 09:15:21;;;;;;;13.93;2.72;;;;;;;;;;5056379;28;41333;-67
2023/09/19 09:17:50;;;;;;;10.80;2.50;;;;;;;;;;5069855;28;41238;-68
2023/09/19 09:20:18;;;;;;;14.07;3.03;;;;;;;;;;5069151;28;40513;-68
2023/09/19 09:22:51;;;;;;;10.40;2.40;;;;;;;;;;5068633;28;42641;-67
2023/09/19 09:25:23;;;;;;;12.63;2.70;;;;;;;;;;5068684;28;42108;-70
2023/09/19 09:28:01;;;;;;;10.95;2.22;;;;;;;;;;5057841;28;41066;-70
2023/09/19 09:30:36;;;;;;;10.57;2.40;;;;;;;;;;5053060;28;40698;-68
2023/09/19 09:33:11;;;;;;;9.20;2.45;;;;;;;;;;5066272;28;42858;-69
2023/09/19 09:35:48;;;;;;;21.13;3.88;;;;;;;;;;5051382;28;40678;-70
2023/09/19 09:38:16;;;;;;;14.05;2.80;;;;;;;;;;5062055;28;41657;-70
2023/09/19 09:40:52;;;;;;;22.10;3.63;;;;;;;;;;5067147;28;42438;-71
2023/09/19 09:43:28;;;;;;;8.35;2.67;;;;;;;;;;5065550;28;42239;-71
2023/09/19 09:46:26;;;;;;;9.80;2.40;;;;;;;;;;5068602;28;42721;-68
2023/09/19 09:49:15;;;;;;;71.47;5.95;;;;;;;;;;5069332;28;40879;-67
2023/09/19 09:51:47;;;;;;;9.07;2.10;;;;;;;;;;5063525;28;41356;-67
2023/09/19 09:54:15;;;;;;;8.63;1.98;;;;;;;;;;5064820;28;41739;-68
2023/09/19 09:56:59;;;;;;;13.07;2.78;;;;;;;;;;5066378;28;40865;-68
2023/09/19 09:59:47;;;;;;;10.93;2.83;;;;;;;;;;5065754;28;40949;-68
2023/09/19 10:02:20;;;;;;;12.75;2.60;;;;;;;;;;5066698;28;42762;-67
2023/09/19 10:04:58;;;;;;;6.63;2.50;;;;;;;;;;5062618;28;39935;-69
2023/09/19 10:07:31;;;;;;;14.65;3.00;;;;;;;;;;5068089;28;43216;-68
2023/09/19 10:10:16;;;;;;;7.50;1.80;;;;;;;;;;5066607;28;40289;-68
2023/09/19 10:12:49;;;;;;;10.65;2.47;;;;;;;;;;5066507;28;41376;-68
2023/09/19 10:15:20;;;;;;;9.38;2.30;;;;;;;;;;5069276;28;42247;-72
2023/09/19 10:17:48;;;;;;;11.85;2.92;;;;;;;;;;5065024;28;41862;-68
2023/09/19 10:20:32;;;;;;;9.65;2.38;;;;;;;;;;5069732;28;41477;-69
2023/09/19 10:23:01;;;;;;;9.75;2.45;;;;;;;;;;5068044;28;42237;-71
2023/09/19 10:25:30;;;;;;;7.90;2.40;;;;;;;;;;5065852;28;41387;-69
2023/09/19 10:28:02;;;;;;;11.77;2.70;;;;;;;;;;5070332;28;42407;-69
2023/09/19 10:30:32;;;;;;;10.48;2.10;;;;;;;;;;5052629;28;39895;-70
2023/09/19 10:33:01;;;;;;;10.05;2.40;;;;;;;;;;5068257;28;41639;-72
2023/09/19 10:35:29;;;;;;;9.77;2.60;;;;;;;;;;5067957;28;43149;-69
2023/09/19 10:37:58;;;;;;;11.93;2.33;;;;;;;;;;5068851;28;40355;-70
2023/09/19 10:40:30;;;;;;;10.95;2.38;;;;;;;;;;5068169;28;41857;-70
2023/09/19 10:43:06;;;;;;;8.98;2.70;;;;;;;;;;5065814;28;42429;-71
2023/09/19 10:45:34;;;;;;;9.10;2.25;;;;;;;;;;5065677;28;39953;-72
2023/09/19 10:48:04;;;;;;;9.75;2.42;;;;;;;;;;5068743;28;41418;-71
2023/09/19 10:50:33;;;;;;;9.25;2.38;;;;;;;;;;5068239;28;40414;-70
2023/09/19 10:53:04;;;;;;;9.90;2.63;;;;;;;;;;5067919;28;42357;-69
2023/09/19 10:55:36;;;;;;;5.22;2.13;;;;;;;;;;5065640;28;42862;-71
2023/09/19 10:58:14;;;;;;;10.52;2.47;;;;;;;;;;5068692;28;41091;-70
2023/09/19 11:00:52;;;;;;;7.95;2.13;;;;;;;;;;5066029;28;41573;-71
2023/09/19 11:03:22;;;;;;;9.10;2.75;;;;;;;;;;5067805;28;41963;-71
2023/09/19 11:06:09;;;;;;;7.80;2.90;;;;;;;;;;5065261;28;41582;-69
2023/09/19 11:08:54;;;;;;;11.35;2.00;;;;;;;;;;5066808;28;42643;-70
2023/09/19 11:11:37;;;;;;;6.78;2.00;;;;;;;;;;5066437;28;42153;-70
2023/09/19 11:14:30;;;;;;;7.60;2.45;;;;;;;;;;5058283;28;40515;-69
2023/09/19 11:17:19;;;;;;;9.40;2.22;;;;;;;;;;5062768;28;42553;-70
2023/09/19 11:20:16;;;;;;;12.15;2.55;;;;;;;;;;5064173;28;40483;-70
2023/09/19 11:22:58;;;;;;;7.45;2.20;;;;;;;;;;5057724;28;41925;-69
2023/09/19 11:25:47;;;;;;;7.63;1.70;;;;;;;;;;5064700;28;42626;-70
2023/09/19 11:28:31;;;;;;;7.13;2.50;;;;;;;;;;5065590;28;40363;-70
2023/09/19 11:31:21;;;;;;;10.35;2.40;;;;;;;;;;5072834;28;39637;-70
2023/09/19 11:33:49;;;;;;;8.15;1.98;;;;;;;;;;5066316;28;42804;-69
2023/09/19 11:36:19;;;;;;;6.93;1.88;;;;;;;;;;5066814;28;40710;-70
2023/09/19 11:39:01;;;;;;;8.25;2.33;;;;;;;;;;5066493;28;42020;-70
2023/09/19 11:41:38;;;;;;;7.80;1.98;;;;;;;;;;5066394;28;40333;-70
2023/09/19 11:44:25;;;;;;;11.15;2.05;;;;;;;;;;5064620;28;41702;-70
2023/09/19 11:46:54;;;;;;;7.68;2.35;;;;;;;;;;5067159;28;42024;-70
2023/09/19 11:49:29;;;;;;;10.77;1.80;;;;;;;;;;5063071;28;38796;-69
2023/09/19 11:52:04;;;;;;;6.45;2.40;;;;;;;;;;5063648;28;41539;-69
2023/09/19 11:54:32;;;;;;;5.18;2.00;;;;;;;;;;5063515;28;43056;-70
2023/09/19 11:57:01;;;;;;;7.47;1.90;;;;;;;;;;5066431;28;40421;-69
2023/09/19 11:59:29;;;;;;;5.93;2.30;;;;;;;;;;5067218;28;41648;-73
2023/09/19 12:01:59;;;;;;;6.85;1.85;;;;;;;;;;5066863;28;40327;-69
2023/09/19 12:04:37;;;;;;;9.75;2.13;;;;;;;;;;5051033;28;40638;-70
2023/09/19 12:07:10;;;;;;;8.88;1.52;;;;;;;;;;5051118;28;41980;-71
2023/09/19 12:09:40;;;;;;;10.50;2.22;;;;;;;;;;5063879;28;39890;-71
2023/09/19 12:12:08;;;;;;;8.40;1.77;;;;;;;;;;5060170;28;40040;-71
2023/09/19 12:14:37;;;;;;;9.77;2.10;;;;;;;;;;5060481;28;42445;-72
2023/09/19 12:17:06;;;;;;;13.27;1.98;;;;;;;;;;5057114;28;39968;-72
2023/09/19 12:19:34;;;;;;;6.28;2.13;;;;;;;;;;5061328;28;41807;-72
2023/09/19 12:22:04;;;;;;;6.93;1.85;;;;;;;;;;5060928;28;34496;-72
2023/09/19 12:24:32;;;;;;;6.72;1.58;;;;;;;;;;5063013;28;42766;-72
2023/09/19 12:27:04;;;;;;;7.32;1.83;;;;;;;;;;5059835;28;42084;-72
2023/09/19 12:29:34;;;;;;;7.45;2.08;;;;;;;;;;5038036;28;40296;-72
2023/09/19 12:32:05;;;;;;;6.28;1.67;;;;;;;;;;5061100;28;41244;-71
2023/09/19 12:34:35;;;;;;;4.55;1.77;;;;;;;;;;5061137;28;41229;-71
2023/09/19 12:37:15;;;;;;;7.35;1.60;;;;;;;;;;5063897;28;40497;-74
2023/09/19 12:39:44;;;;;;;7.28;1.95;;;;;;;;;;5061014;28;41677;-70
2023/09/19 12:42:13;;;;;;;11.07;1.75;;;;;;;;;;5063573;28;42149;-71
2023/09/19 12:44:43;;;;;;;9.18;1.80;;;;;;;;;;5064994;28;40900;-72
2023/09/19 12:47:11;;;;;;;6.70;1.75;;;;;;;;;;5063620;28;43118;-70
2023/09/19 12:49:55;;;;;;;4.00;1.40;;;;;;;;;;5061360;28;39502;-69
2023/09/19 12:52:25;;;;;;;5.18;1.55;;;;;;;;;;5062727;28;42583;-70
2023/09/19 12:54:53;;;;;;;6.03;1.42;;;;;;;;;;5061092;28;42201;-70
2023/09/19 12:57:25;;;;;;;6.13;1.33;;;;;;;;;;5064264;28;39894;-69
2023/09/19 12:59:53;;;;;;;5.82;1.73;;;;;;;;;;5060410;28;41256;-70
2023/09/19 13:02:23;;;;;;;7.55;1.33;;;;;;;;;;5064527;28;41797;-70
2023/09/19 13:04:56;;;;;;;8.00;2.10;;;;;;;;;;5061796;28;40227;-70
2023/09/19 13:07:45;;;;;;;6.13;1.50;;;;;;;;;;5063451;28;41146;-72
2023/09/19 13:10:16;;;;;;;4.60;1.50;;;;;;;;;;5061973;28;40522;-70
2023/09/19 13:12:46;;;;;;;5.72;1.58;;;;;;;;;;5064512;28;41543;-71
2023/09/19 13:15:19;;;;;;;3.88;1.40;;;;;;;;;;5059538;28;42125;-71
2023/09/19 13:17:48;;;;;;;3.28;1.00;;;;;;;;;;5066024;28;40896;-70
2023/09/19 13:20:27;;;;;;;3.28;1.15;;;;;;;;;;5065343;28;41297;-70
2023/09/19 13:22:58;;;;;;;3.42;1.25;;;;;;;;;;5062087;28;41641;-70
2023/09/19 13:25:29;;;;;;;2.88;1.17;;;;;;;;;;5064756;28;41477;-70
2023/09/19 13:27:57;;;;;;;3.80;1.10;;;;;;;;;;5064166;28;41634;-74
2023/09/19 13:30:26;;;;;;;5.93;1.27;;;;;;;;;;5066349;28;41137;-68
2023/09/19 13:33:05;;;;;;;5.63;1.48;;;;;;;;;;5066974;28;41550;-70
2023/09/19 13:35:33;;;;;;;4.07;1.45;;;;;;;;;;5063407;28;41740;-70
2023/09/19 13:38:03;;;;;;;4.82;1.08;;;;;;;;;;5067620;28;39847;-70
2023/09/19 13:40:34;;;;;;;3.78;1.20;;;;;;;;;;5066292;28;41174;-71
2023/09/19 13:43:03;;;;;;;8.57;1.35;;;;;;;;;;5063064;28;43118;-74
2023/09/19 13:45:31;;;;;;;3.30;1.40;;;;;;;;;;5065427;28;41413;-70
2023/09/19 13:48:00;;;;;;;7.38;1.00;;;;;;;;;;5068519;28;41928;-71
2023/09/19 13:50:29;;;;;;;2.42;0.93;;;;;;;;;;5065810;28;41902;-70
2023/09/19 13:52:57;;;;;;;4.45;1.17;;;;;;;;;;5067753;28;41997;-70
2023/09/19 13:55:27;;;;;;;5.65;1.15;;;;;;;;;;5066313;28;42188;-70
2023/09/19 13:57:56;;;;;;;4.07;1.30;;;;;;;;;;5066938;28;41400;-71
2023/09/19 14:00:24;;;;;;;3.15;1.02;;;;;;;;;;5066200;28;41953;-71
2023/09/19 14:02:52;;;;;;;4.43;1.17;;;;;;;;;;5065655;28;41534;-70
2023/09/19 14:05:21;;;;;;;3.17;1.20;;;;;;;;;;5067097;28;40844;-70
2023/09/19 14:07:49;;;;;;;3.08;0.90;;;;;;;;;;5066286;28;41752;-70
2023/09/19 14:10:17;;;;;;;3.97;1.35;;;;;;;;;;5066124;28;42453;-70
2023/09/19 14:12:47;;;;;;;4.63;1.20;;;;;;;;;;5066567;28;40459;-70
2023/09/19 14:15:15;;;;;;;4.15;1.17;;;;;;;;;;5067009;28;42739;-70
2023/09/19 14:17:45;;;;;;;4.20;1.13;;;;;;;;;;5065856;28;41514;-72
2023/09/19 14:20:13;;;;;;;4.90;1.05;;;;;;;;;;5066595;28;41492;-71
2023/09/19 14:22:42;;;;;;;3.03;1.02;;;;;;;;;;5067050;28;42206;-69
2023/09/19 14:25:10;;;;;;;5.60;0.80;;;;;;;;;;5065586;28;40411;-70
2023/09/19 14:27:38;;;;;;;1.67;0.60;;;;;;;;;;5066445;28;41850;-70
2023/09/19 14:30:09;;;;;;;3.75;1.10;;;;;;;;;;5066487;28;41387;-71
2023/09/19 14:32:37;;;;;;;4.60;1.05;;;;;;;;;;5057305;28;40383;-70
2023/09/19 14:35:06;;;;;;;5.15;0.80;;;;;;;;;;5066863;28;43635;-69
2023/09/19 14:37:34;;;;;;;5.28;1.20;;;;;;;;;;5066853;28;40372;-69
2023/09/19 14:40:07;;;;;;;5.53;0.93;;;;;;;;;;5066873;28;42022;-70
2023/09/19 14:42:36;;;;;;;8.15;1.27;;;;;;;;;;5062257;28;41830;-70
2023/09/19 14:45:05;;;;;;;2.80;0.98;;;;;;;;;;5064127;28;41367;-69
2023/09/19 14:47:34;;;;;;;3.65;0.85;;;;;;;;;;5065573;28;41817;-71
2023/09/19 14:50:06;;;;;;;2.85;0.60;;;;;;;;;;5067253;28;42589;-69
2023/09/19 14:52:36;;;;;;;3.47;0.82;;;;;;;;;;5061891;28;41291;-69
2023/09/19 14:55:05;;;;;;;2.08;0.82;;;;;;;;;;5067879;28;41198;-70
2023/09/19 14:57:33;;;;;;;2.90;0.80;;;;;;;;;;5065471;28;40142;-69
2023/09/19 15:00:05;;;;;;;1.77;0.70;;;;;;;;;;5067362;28;41432;-69